createdAt,value
2023-01-27T00:01:28.675Z,100970.09
2023-01-27T00:03:59.401Z,100970.95
2023-01-27T00:06:30.018Z,100968.73
2023-01-27T00:09:00.561Z,100971.38
2023-01-27T00:11:48.813Z,100968.80
2023-01-27T00:14:19.424Z,100972.72
2023-01-27T00:16:50.063Z,100970.64
2023-01-27T00:19:22.311Z,100963.61
2023-01-27T00:22:11.043Z,100961.77
2023-01-27T00:24:42.685Z,100971.18
2023-01-27T00:27:13.425Z,100959.88
2023-01-27T00:29:43.956Z,100966.30
2023-01-27T00:32:32.393Z,100972.72
2023-01-27T00:35:02.965Z,100966.57
2023-01-27T00:37:33.495Z,100975.34
2023-01-27T00:40:04.065Z,100969.93
2023-01-27T00:42:34.638Z,100973.71
2023-01-27T00:45:24.513Z,100975.17
2023-01-27T00:47:55.308Z,100977.47
2023-01-27T00:50:26.526Z,100982.61
2023-01-27T00:52:58.702Z,100977.98
2023-01-27T00:55:29.232Z,100983.49
2023-01-27T00:57:59.777Z,100985.81
2023-01-27T01:00:30.312Z,100987.48
2023-01-27T01:03:00.942Z,100989.67
2023-01-27T01:05:31.632Z,100981.41
2023-01-27T01:08:02.154Z,100985.08
2023-01-27T01:10:32.699Z,100991.75
2023-01-27T01:13:03.286Z,100993.70
2023-01-27T01:15:38.595Z,100988.08
2023-01-27T01:18:11.012Z,100991.31
2023-01-27T01:20:44.253Z,100990.73
2023-01-27T01:23:16.516Z,100990.59
2023-01-27T01:25:58.344Z,100996.89
2023-01-27T01:28:28.892Z,100990.09
2023-01-27T01:31:11.270Z,100990.73
2023-01-27T01:33:41.985Z,100988.91
2023-01-27T01:36:15.436Z,100993.10
2023-01-27T01:38:46.786Z,100993.73
2023-01-27T01:41:20.453Z,100993.11
2023-01-27T01:43:52.105Z,101001.07
2023-01-27T01:46:22.737Z,101005.12
2023-01-27T01:48:56.243Z,101003.20
2023-01-27T01:51:35.679Z,100997.53
2023-01-27T01:54:09.563Z,100997.69
2023-01-27T01:56:43.378Z,101001.10
2023-01-27T01:59:19.471Z,101000.78
2023-01-27T02:01:54.267Z,101005.91
2023-01-27T02:04:27.709Z,101004.66
2023-01-27T02:07:16.162Z,100998.48
2023-01-27T02:09:46.708Z,100999.66
2023-01-27T02:12:17.286Z,101003.18
2023-01-27T02:14:47.837Z,101000.45
2023-01-27T02:17:18.597Z,101000.84
2023-01-27T02:20:07.415Z,101000.00
2023-01-27T02:22:55.636Z,101000.00
2023-01-27T02:25:38.097Z,100998.81
2023-01-27T02:28:09.760Z,101007.59
2023-01-27T02:30:40.404Z,101011.14
2023-01-27T02:33:16.287Z,101002.52
2023-01-27T02:35:59.318Z,101008.02
2023-01-27T02:38:32.789Z,101016.52
2023-01-27T02:41:15.137Z,101016.29
2023-01-27T02:43:45.730Z,101024.72
2023-01-27T02:46:18.359Z,101019.22
2023-01-27T02:48:48.915Z,101006.95
2023-01-27T02:51:20.678Z,101010.99
2023-01-27T02:53:51.239Z,101016.02
2023-01-27T02:56:21.882Z,101010.56
2023-01-27T02:58:52.442Z,101010.50
2023-01-27T03:01:24.241Z,101009.95
2023-01-27T03:03:56.050Z,101011.38
2023-01-27T03:06:26.720Z,101017.15
2023-01-27T03:08:57.315Z,101018.34
2023-01-27T03:11:46.926Z,101018.03
2023-01-27T03:14:18.172Z,101021.36
2023-01-27T03:17:06.723Z,101025.38
2023-01-27T03:19:37.297Z,101027.44
2023-01-27T03:22:07.835Z,101014.22
2023-01-27T03:24:39.631Z,101026.55
2023-01-27T03:27:10.351Z,101023.19
2023-01-27T03:29:56.065Z,101028.38
2023-01-27T03:32:32.446Z,101034.23
2023-01-27T03:35:04.117Z,101013.90
2023-01-27T03:37:52.640Z,101015.55
2023-01-27T03:40:41.242Z,101020.23
2023-01-27T03:43:29.943Z,101023.58
2023-01-27T03:46:17.673Z,101023.57
2023-01-27T03:48:51.488Z,101018.28
2023-01-27T03:51:25.713Z,101012.11
2023-01-27T03:53:56.224Z,101024.81
2023-01-27T03:56:26.781Z,101017.15
2023-01-27T03:58:57.927Z,101014.16
2023-01-27T04:01:28.534Z,101011.20
2023-01-27T04:04:17.099Z,101018.02
2023-01-27T04:06:55.480Z,101020.00
2023-01-27T04:09:28.838Z,101018.83
2023-01-27T04:12:01.050Z,101015.25
2023-01-27T04:14:39.306Z,101022.86
2023-01-27T04:17:12.773Z,101023.03
2023-01-27T04:19:43.281Z,101024.37
2023-01-27T04:22:15.929Z,101026.57
2023-01-27T04:24:46.477Z,101040.36
2023-01-27T04:27:18.663Z,101029.13
2023-01-27T04:29:49.345Z,101030.63
2023-01-27T04:32:19.968Z,101040.09
2023-01-27T04:34:50.491Z,101038.86
2023-01-27T04:37:21.096Z,101039.55
2023-01-27T04:39:51.697Z,101048.98
2023-01-27T04:42:22.312Z,101057.89
2023-01-27T04:44:52.904Z,101059.96
2023-01-27T04:47:23.433Z,101063.94
2023-01-27T04:49:54.023Z,101056.73
2023-01-27T04:52:26.129Z,101064.64
2023-01-27T04:54:56.702Z,101062.72
2023-01-27T04:57:28.268Z,101059.27
2023-01-27T04:59:58.834Z,101067.85
2023-01-27T05:02:29.423Z,101055.59
2023-01-27T05:04:59.985Z,101068.67
2023-01-27T05:07:32.162Z,101074.27
2023-01-27T05:10:03.033Z,101077.61
2023-01-27T05:12:33.896Z,101069.08
2023-01-27T05:15:04.540Z,101076.17
2023-01-27T05:17:36.018Z,101082.51
2023-01-27T05:20:07.219Z,101084.06
2023-01-27T05:22:37.781Z,101085.85
2023-01-27T05:25:08.976Z,101081.94
2023-01-27T05:27:39.891Z,101083.38
2023-01-27T05:30:11.674Z,101097.52
2023-01-27T05:32:42.247Z,101090.70
2023-01-27T05:35:13.106Z,101087.45
2023-01-27T05:37:43.865Z,101093.89
2023-01-27T05:40:14.977Z,101090.12
2023-01-27T05:42:45.567Z,101096.27
2023-01-27T05:45:16.601Z,101093.21
2023-01-27T05:47:55.025Z,101097.52
2023-01-27T05:50:25.625Z,101096.11
2023-01-27T05:52:56.185Z,101095.31
2023-01-27T05:55:27.229Z,101100.93
2023-01-27T05:57:57.792Z,101101.73
2023-01-27T06:00:28.401Z,101097.11
2023-01-27T06:02:58.983Z,101106.40
2023-01-27T06:05:29.530Z,101103.97
2023-01-27T06:08:00.123Z,101108.05
2023-01-27T06:10:32.263Z,101106.28
2023-01-27T06:13:04.048Z,101111.75
2023-01-27T06:15:34.606Z,101115.09
2023-01-27T06:18:05.276Z,101106.08
2023-01-27T06:20:36.168Z,101103.98
2023-01-27T06:23:07.642Z,101108.23
2023-01-27T06:25:46.395Z,101104.98
2023-01-27T06:28:30.447Z,101098.62
2023-01-27T06:30:51.248Z,101109.28
2023-01-27T06:33:21.874Z,101110.57
2023-01-27T06:35:52.410Z,101112.91
2023-01-27T06:38:22.993Z,101118.89
2023-01-27T06:43:28.717Z,101116.47
2023-01-27T06:45:59.349Z,101115.60
2023-01-27T06:48:30.458Z,101119.13
2023-01-27T06:51:00.993Z,101113.43
2023-01-27T06:53:32.823Z,101124.14
2023-01-27T06:56:03.931Z,101132.28
2023-01-27T06:58:34.539Z,101130.59
2023-01-27T07:01:07.530Z,101135.13
2023-01-27T07:03:38.222Z,101132.87
2023-01-27T07:06:10.686Z,101143.01
2023-01-27T07:08:42.580Z,101145.31
2023-01-27T07:11:13.197Z,101136.34
2023-01-27T07:13:44.765Z,101148.93
2023-01-27T07:16:15.421Z,101147.08
2023-01-27T07:18:46.052Z,101147.55
2023-01-27T07:21:16.627Z,101144.67
2023-01-27T07:23:47.175Z,101139.09
2023-01-27T07:26:25.130Z,101143.77
2023-01-27T07:28:51.859Z,101150.00
2023-01-27T07:31:22.578Z,101147.80
2023-01-27T07:33:55.319Z,101154.59
2023-01-27T07:36:25.950Z,101151.91
2023-01-27T07:38:57.717Z,101166.11
2023-01-27T07:41:28.314Z,101161.70
2023-01-27T07:43:58.961Z,101168.74
2023-01-27T07:46:29.588Z,101166.17
2023-01-27T07:49:00.139Z,101177.80
2023-01-27T07:51:31.898Z,101190.30
2023-01-27T07:54:05.292Z,101180.01
2023-01-27T07:56:36.614Z,101188.39
2023-01-27T07:59:07.204Z,101187.75
2023-01-27T08:01:38.466Z,101177.20
2023-01-27T08:04:09.089Z,101191.37
2023-01-27T08:06:40.464Z,101186.28
2023-01-27T08:09:11.057Z,101196.19
2023-01-27T08:11:41.600Z,101193.84
2023-01-27T08:14:12.205Z,101196.27
2023-01-27T08:16:42.790Z,101203.57
2023-01-27T08:19:13.401Z,101197.44
2023-01-27T08:21:43.969Z,101199.52
2023-01-27T08:24:14.702Z,101212.84
2023-01-27T08:26:45.390Z,101213.47
2023-01-27T08:29:15.955Z,101216.38
2023-01-27T08:31:46.568Z,101221.77
2023-01-27T08:34:17.304Z,101220.28
2023-01-27T08:36:47.924Z,101214.03
2023-01-27T08:39:18.501Z,101216.31
2023-01-27T08:41:49.017Z,101210.84
2023-01-27T08:44:19.706Z,101213.14
2023-01-27T08:46:50.271Z,101219.58
2023-01-27T08:49:20.977Z,101222.91
2023-01-27T08:51:51.501Z,101212.68
2023-01-27T08:54:22.079Z,101225.98
2023-01-27T08:56:53.848Z,101218.85
2023-01-27T08:59:24.434Z,101230.20
2023-01-27T09:01:54.968Z,101237.95
2023-01-27T09:04:25.929Z,101246.11
2023-01-27T09:06:56.513Z,101233.49
2023-01-27T09:09:27.076Z,101236.67
2023-01-27T09:11:57.774Z,101240.64
2023-01-27T09:14:28.481Z,101230.27
2023-01-27T09:17:00.164Z,101238.52
2023-01-27T09:19:30.694Z,101240.44
2023-01-27T09:22:01.263Z,101255.36
2023-01-27T09:24:31.849Z,101248.16
2023-01-27T09:27:02.390Z,101250.13
2023-01-27T09:29:33.490Z,101262.05
2023-01-27T09:32:04.758Z,101264.88
2023-01-27T09:34:40.817Z,101261.48
2023-01-27T09:37:15.837Z,101253.70
2023-01-27T09:39:50.440Z,101261.61
2023-01-27T09:42:39.506Z,101254.59
2023-01-27T09:45:23.148Z,101251.91
2023-01-27T09:48:02.345Z,101245.78
2023-01-27T09:50:47.756Z,101254.94
2023-01-27T09:53:32.558Z,101260.20
2023-01-27T09:56:12.475Z,101259.20
2023-01-27T09:58:59.452Z,101267.33
2023-01-27T10:01:54.246Z,101264.45
2023-01-27T10:04:47.665Z,101261.97
2023-01-27T10:07:29.145Z,101267.50
2023-01-27T10:10:14.034Z,101261.89
2023-01-27T10:13:09.220Z,101261.09
2023-01-27T10:16:03.929Z,101258.15
2023-01-27T10:19:05.651Z,101267.11
2023-01-27T10:21:53.554Z,101256.96
2023-01-27T10:24:55.079Z,101254.17
2023-01-27T10:27:29.543Z,101264.95
2023-01-27T10:30:03.816Z,101262.98
2023-01-27T10:32:49.928Z,101262.54
2023-01-27T10:35:23.753Z,101272.70
2023-01-27T10:38:05.307Z,101266.23
2023-01-27T10:40:55.492Z,101269.73
2023-01-27T10:43:39.857Z,101266.70
2023-01-27T10:46:15.558Z,101268.06
2023-01-27T10:48:53.710Z,101267.11
2023-01-27T10:51:30.431Z,101273.61
2023-01-27T10:54:16.081Z,101277.36
2023-01-27T10:57:09.287Z,101274.25
2023-01-27T10:59:55.261Z,101284.31
2023-01-27T11:02:39.942Z,101276.98
2023-01-27T11:05:16.267Z,101280.64
2023-01-27T11:07:55.659Z,101281.64
2023-01-27T11:10:34.567Z,101281.20
2023-01-27T11:13:10.444Z,101286.66
2023-01-27T11:15:44.744Z,101289.30
2023-01-27T11:18:27.512Z,101286.67
2023-01-27T11:21:24.281Z,101278.41
2023-01-27T11:24:24.172Z,101284.23
2023-01-27T11:27:08.234Z,101272.41
2023-01-27T11:29:45.792Z,101282.89
2023-01-27T11:32:30.690Z,101275.50
2023-01-27T11:35:08.277Z,101277.87
2023-01-27T11:37:48.679Z,101278.05
2023-01-27T11:40:26.163Z,101278.59
2023-01-27T11:43:02.524Z,101283.34
2023-01-27T11:45:53.424Z,101281.92
2023-01-27T11:48:24.135Z,101277.64
2023-01-27T11:50:54.793Z,101281.46
2023-01-27T11:53:32.864Z,101283.30
2023-01-27T11:56:07.787Z,101282.96
2023-01-27T11:58:44.110Z,101274.77
2023-01-27T12:01:18.766Z,101283.55
2023-01-27T12:04:04.895Z,101281.55
2023-01-27T12:06:38.419Z,101286.02
2023-01-27T12:09:10.420Z,101285.06
2023-01-27T12:11:42.285Z,101279.25
2023-01-27T12:14:14.607Z,101272.11
2023-01-27T12:16:48.073Z,101279.56
2023-01-27T12:19:32.219Z,101275.86
2023-01-27T12:22:05.728Z,101276.80
2023-01-27T12:24:42.678Z,101269.41
2023-01-27T12:27:18.791Z,101284.91
2023-01-27T12:29:58.111Z,101273.95
2023-01-27T12:32:47.279Z,101275.48
2023-01-27T12:35:32.854Z,101285.53
2023-01-27T12:38:06.303Z,101272.63
2023-01-27T12:40:38.432Z,101271.78
2023-01-27T12:43:22.919Z,101269.25
2023-01-27T12:46:17.512Z,101270.61
2023-01-27T12:48:53.762Z,101276.45
2023-01-27T12:51:27.348Z,101272.19
2023-01-27T12:54:00.844Z,101271.13
2023-01-27T12:56:33.577Z,101273.76
2023-01-27T12:59:04.141Z,101279.52
2023-01-27T13:01:39.171Z,101277.33
2023-01-27T13:04:25.888Z,101277.15
2023-01-27T13:06:59.428Z,101278.16
2023-01-27T13:09:35.737Z,101283.14
2023-01-27T13:12:30.182Z,101282.76
2023-01-27T13:15:10.262Z,101284.44
2023-01-27T13:17:46.509Z,101280.14
2023-01-27T13:20:32.406Z,101287.41
2023-01-27T13:23:14.741Z,101290.22
2023-01-27T13:25:51.395Z,101283.77
2023-01-27T13:28:51.270Z,101281.25
2023-01-27T13:31:12.179Z,101290.27
2023-01-27T13:33:54.609Z,101294.96
2023-01-27T13:36:37.059Z,101290.25
2023-01-27T13:39:39.286Z,101287.42
2023-01-27T13:42:21.535Z,101294.34
2023-01-27T13:45:17.592Z,101285.08
2023-01-27T13:47:54.019Z,101296.75
2023-01-27T13:50:27.917Z,101251.91
2023-01-27T13:53:01.091Z,101299.62
2023-01-27T13:55:40.449Z,101306.62
2023-01-27T13:58:16.695Z,101295.19
2023-01-27T14:00:53.354Z,101302.21
2023-01-27T14:03:32.664Z,101301.52
2023-01-27T14:06:20.690Z,101307.66
2023-01-27T14:09:03.032Z,101299.41
2023-01-27T14:11:42.178Z,101306.31
2023-01-27T14:14:24.584Z,101308.39
2023-01-27T14:16:59.325Z,101305.80
2023-01-27T14:19:41.756Z,101310.98
2023-01-27T14:22:24.305Z,101305.02
2023-01-27T14:25:06.905Z,101320.05
2023-01-27T14:27:42.935Z,101315.57
2023-01-27T14:30:25.299Z,101329.31
2023-01-27T14:33:02.060Z,101319.41
2023-01-27T14:35:44.177Z,101328.30
2023-01-27T14:38:23.398Z,101320.06
2023-01-27T14:41:04.135Z,101322.66
2023-01-27T14:43:58.962Z,101312.71
2023-01-27T14:46:48.311Z,101323.66
2023-01-27T14:49:57.228Z,101314.17
2023-01-27T14:52:37.775Z,101318.30
2023-01-27T14:55:33.944Z,101310.39
2023-01-27T14:58:08.024Z,101322.83
2023-01-27T15:00:56.515Z,101326.91
2023-01-27T15:03:48.340Z,101324.73
2023-01-27T15:06:29.117Z,101325.63
2023-01-27T15:09:08.575Z,101332.67
2023-01-27T15:11:48.252Z,101335.02
2023-01-27T15:14:27.611Z,101342.33
2023-01-27T15:17:03.904Z,101326.88
2023-01-27T15:20:02.937Z,101336.58
2023-01-27T15:22:51.339Z,101340.33
2023-01-27T15:25:33.653Z,101341.48
2023-01-27T15:28:05.405Z,101344.04
2023-01-27T15:30:38.742Z,101341.48
2023-01-27T15:33:45.671Z,101346.30
2023-01-27T15:36:26.206Z,101349.84
2023-01-27T15:39:05.941Z,101348.31
2023-01-27T15:41:41.454Z,101351.49
2023-01-27T15:44:27.097Z,101353.14
2023-01-27T15:47:21.637Z,101350.72
2023-01-27T15:50:00.831Z,101346.20
2023-01-27T15:52:38.361Z,101346.05
2023-01-27T15:55:11.656Z,101346.11
2023-01-27T15:57:43.742Z,101348.48
2023-01-27T16:00:26.463Z,101344.77
2023-01-27T16:02:58.571Z,101354.02
2023-01-27T16:05:31.976Z,101351.22
2023-01-27T16:08:05.985Z,101356.32
2023-01-27T16:10:37.341Z,101362.87
2023-01-27T16:13:28.837Z,101373.13
2023-01-27T16:16:22.021Z,101369.05
2023-01-27T16:19:09.925Z,101362.43
2023-01-27T16:21:52.691Z,101360.62
2023-01-27T16:24:29.342Z,101365.86
2023-01-27T16:27:08.483Z,101369.34
2023-01-27T16:29:48.112Z,101376.88
2023-01-27T16:32:22.154Z,101378.97
2023-01-27T16:34:55.689Z,101383.09
2023-01-27T16:37:31.834Z,101375.28
2023-01-27T16:40:20.631Z,101380.08
2023-01-27T16:43:00.166Z,101383.36
2023-01-27T16:45:33.742Z,101388.58
2023-01-27T16:48:10.059Z,101386.81
2023-01-27T16:50:43.042Z,101389.37
2023-01-27T16:53:22.380Z,101386.71
2023-01-27T16:56:07.867Z,101391.89
2023-01-27T16:58:46.667Z,101387.16
2023-01-27T17:01:13.468Z,101390.08
2023-01-27T17:03:43.973Z,101400.81
2023-01-27T17:06:17.220Z,101395.34
2023-01-27T17:08:49.858Z,101405.28
2023-01-27T17:11:26.379Z,101396.80
2023-01-27T17:14:05.475Z,101393.63
2023-01-27T17:16:42.545Z,101397.76
2023-01-27T17:19:21.754Z,101397.34
2023-01-27T17:22:00.983Z,101397.84
2023-01-27T17:24:49.623Z,101404.88
2023-01-27T17:27:30.944Z,101410.45
2023-01-27T17:30:25.491Z,101411.08
2023-01-27T17:32:58.874Z,101420.86
2023-01-27T17:35:37.979Z,101423.63
2023-01-27T17:38:26.597Z,101413.64
2023-01-27T17:40:57.050Z,101425.62
2023-01-27T17:43:32.952Z,101425.06
2023-01-27T17:46:22.115Z,101421.62
2023-01-27T17:49:04.177Z,101429.98
2023-01-27T17:51:45.719Z,101420.18
2023-01-27T17:54:23.039Z,101433.16
2023-01-27T17:57:20.187Z,101433.63
2023-01-27T18:00:12.857Z,101443.29
2023-01-27T18:03:18.992Z,101444.38
2023-01-27T18:05:53.046Z,101454.47
2023-01-27T18:08:27.392Z,101454.80
2023-01-27T18:11:16.624Z,101447.55
2023-01-27T18:13:55.597Z,101450.87
2023-01-27T18:16:30.981Z,101454.58
2023-01-27T18:19:27.976Z,101458.11
2023-01-27T18:22:16.582Z,101459.80
2023-01-27T18:24:58.615Z,101453.66
2023-01-27T18:27:34.288Z,101459.17
2023-01-27T18:30:12.808Z,101464.09
2023-01-27T18:32:50.686Z,101465.34
2023-01-27T18:35:31.479Z,101459.72
2023-01-27T18:38:11.636Z,101459.11
2023-01-27T18:40:42.994Z,101469.66
2023-01-27T18:43:15.178Z,101480.84
2023-01-27T18:45:48.141Z,101470.25
2023-01-27T18:48:19.612Z,101474.30
2023-01-27T18:50:52.639Z,101479.84
2023-01-27T18:53:26.520Z,101481.91
2023-01-27T18:56:01.625Z,101485.00
2023-01-27T18:58:37.096Z,101489.10
2023-01-27T19:01:16.440Z,101487.43
2023-01-27T19:03:54.042Z,101482.92
2023-01-27T19:06:28.066Z,101483.42
2023-01-27T19:08:59.985Z,101487.17
2023-01-27T19:11:34.699Z,101494.52
2023-01-27T19:14:07.184Z,101496.25
2023-01-27T19:16:40.350Z,101507.89
2023-01-27T19:19:14.928Z,101505.52
2023-01-27T19:21:45.945Z,101509.50
2023-01-27T19:24:21.204Z,101498.39
2023-01-27T19:27:04.140Z,101507.29
2023-01-27T19:29:35.357Z,101509.72
2023-01-27T19:32:08.415Z,101511.45
2023-01-27T19:34:40.356Z,101516.90
2023-01-27T19:37:19.439Z,101523.83
2023-01-27T19:39:51.985Z,101516.06
2023-01-27T19:42:23.886Z,101519.83
2023-01-27T19:44:59.229Z,101533.05
2023-01-27T19:47:34.378Z,101525.23
2023-01-27T19:50:08.869Z,101529.14
2023-01-27T19:52:41.465Z,101623.49
2023-01-27T19:55:13.710Z,101520.77
2023-01-27T19:57:48.598Z,101524.63
2023-01-27T20:00:29.262Z,101539.77
2023-01-27T20:03:01.665Z,101535.64
2023-01-27T20:05:40.303Z,101537.58
2023-01-27T20:08:15.672Z,101535.69
2023-01-27T20:10:50.827Z,101531.64
2023-01-27T20:13:23.655Z,101538.79
2023-01-27T20:15:54.607Z,101528.86
2023-01-27T20:18:25.078Z,101537.56
2023-01-27T20:20:55.589Z,101545.41
2023-01-27T20:23:26.116Z,101541.75
2023-01-27T20:25:58.323Z,101544.83
2023-01-27T20:28:30.248Z,101550.73
2023-01-27T20:31:02.160Z,101548.83
2023-01-27T20:33:32.784Z,101540.53
2023-01-27T20:36:08.423Z,101538.96
2023-01-27T20:38:40.942Z,101550.02
2023-01-27T20:41:14.798Z,101555.65
2023-01-27T20:43:45.388Z,101545.09
2023-01-27T20:46:21.109Z,101553.09
2023-01-27T20:48:53.052Z,101551.33
2023-01-27T20:51:23.658Z,101560.28
2023-01-27T20:53:54.164Z,101555.65
2023-01-27T20:56:25.514Z,101548.66
2023-01-27T20:58:56.024Z,101558.71
2023-01-27T21:01:26.810Z,101558.55
2023-01-27T21:03:57.397Z,101557.58
2023-01-27T21:06:27.856Z,101544.02
2023-01-27T21:08:58.319Z,101550.30
2023-01-27T21:11:28.951Z,101548.72
2023-01-27T21:13:59.385Z,101544.05
2023-01-27T21:16:29.944Z,101546.95
2023-01-27T21:19:00.564Z,101552.33
2023-01-27T21:21:32.504Z,101548.30
2023-01-27T21:24:03.199Z,101543.81
2023-01-27T21:26:33.788Z,101554.59
2023-01-27T21:29:05.268Z,101546.55
2023-01-27T21:31:35.840Z,101547.36
2023-01-27T21:34:06.485Z,101548.16
2023-01-27T21:36:37.407Z,101543.52
2023-01-27T21:39:08.454Z,101543.47
2023-01-27T21:41:55.941Z,101539.66
2023-01-27T21:44:49.205Z,101537.63
2023-01-27T21:47:20.747Z,101539.41
2023-01-27T21:50:04.504Z,101528.90
2023-01-27T21:52:39.418Z,101528.52
2023-01-27T21:55:16.040Z,101530.33
2023-01-27T21:57:48.689Z,101534.86
2023-01-27T22:00:22.684Z,101532.36
2023-01-27T22:03:00.235Z,101530.52
2023-01-27T22:05:33.075Z,101527.62
2023-01-27T22:08:03.806Z,101534.00
2023-01-27T22:10:35.605Z,101533.96
2023-01-27T22:13:06.179Z,101530.00
2023-01-27T22:15:36.620Z,101532.08
2023-01-27T22:18:07.409Z,101527.54
2023-01-27T22:20:38.562Z,101534.92
2023-01-27T22:23:09.024Z,101523.65
2023-01-27T22:25:39.542Z,101518.30
2023-01-27T22:28:10.097Z,101523.43
2023-01-27T22:30:40.560Z,101526.09
2023-01-27T22:33:11.035Z,101526.48
2023-01-27T22:35:41.484Z,101524.64
2023-01-27T22:38:12.068Z,101533.88
2023-01-27T22:40:42.503Z,101536.59
2023-01-27T22:43:13.004Z,101534.44
2023-01-27T22:45:43.505Z,101525.84
2023-01-27T22:48:14.645Z,101532.72
2023-01-27T22:50:45.112Z,101537.22
2023-01-27T22:53:15.632Z,101529.74
2023-01-27T22:55:46.103Z,101526.13
2023-01-27T22:58:17.853Z,101524.50
2023-01-27T23:00:49.554Z,101519.08
2023-01-27T23:03:20.668Z,101517.72
2023-01-27T23:05:51.363Z,101516.42
2023-01-27T23:08:21.938Z,101515.82
2023-01-27T23:10:52.500Z,101514.40
2023-01-27T23:13:24.172Z,101507.14
2023-01-27T23:15:54.603Z,101513.66
2023-01-27T23:18:26.047Z,101503.50
2023-01-27T23:21:00.534Z,101508.29
2023-01-27T23:23:31.092Z,101509.52
2023-01-27T23:26:01.597Z,101513.66
2023-01-27T23:28:33.225Z,101506.97
2023-01-27T23:31:05.613Z,101502.87
2023-01-27T23:33:39.298Z,101510.07
2023-01-27T23:36:11.938Z,101510.98
2023-01-27T23:38:42.447Z,101507.52
2023-01-27T23:41:15.915Z,101513.67
2023-01-27T23:43:55.367Z,101512.28
2023-01-27T23:46:26.913Z,101513.01
2023-01-27T23:48:58.694Z,101507.69
2023-01-27T23:51:29.159Z,101518.09
2023-01-27T23:53:59.677Z,101521.13
2023-01-27T23:56:30.145Z,101527.50
2023-01-27T23:59:00.601Z,101522.63
